createdAt,value
2023-04-16T00:01:03.388Z,35.83
2023-04-16T00:03:30.432Z,36.23
2023-04-16T00:05:57.269Z,36.12
2023-04-16T00:08:26.912Z,35.61
2023-04-16T00:10:54.115Z,35.50
2023-04-16T00:13:21.104Z,35.54
2023-04-16T00:15:47.737Z,35.55
2023-04-16T00:18:14.376Z,35.58
2023-04-16T00:20:41.066Z,36.06
2023-04-16T00:23:07.735Z,35.71
2023-04-16T00:25:34.422Z,36.00
2023-04-16T00:28:01.110Z,36.38
2023-04-16T00:30:29.515Z,35.47
2023-04-16T00:32:56.210Z,35.07
2023-04-16T00:35:23.173Z,35.47
2023-04-16T00:37:49.878Z,36.10
2023-04-16T00:40:16.641Z,35.71
2023-04-16T00:42:43.318Z,35.14
2023-04-16T00:45:10.461Z,35.67
2023-04-16T00:47:37.182Z,34.26
2023-04-16T00:50:04.603Z,34.53
2023-04-16T00:52:34.602Z,35.06
2023-04-16T00:55:01.406Z,34.23
2023-04-16T00:57:28.064Z,34.76
2023-04-16T00:59:54.948Z,34.73
2023-04-16T01:02:21.669Z,34.18
2023-04-16T01:04:50.777Z,34.13
2023-04-16T01:07:17.502Z,34.22
2023-04-16T01:09:44.208Z,33.62
2023-04-16T01:12:10.969Z,34.09
2023-04-16T01:14:37.688Z,33.76
2023-04-16T01:17:04.561Z,34.28
2023-04-16T01:19:31.416Z,34.50
2023-04-16T01:21:58.888Z,35.32
2023-04-16T01:24:25.593Z,35.13
2023-04-16T01:26:52.232Z,35.74
2023-04-16T01:29:19.232Z,35.96
2023-04-16T01:31:46.935Z,36.68
2023-04-16T01:34:23.300Z,36.90
2023-04-16T01:36:49.985Z,37.34
2023-04-16T01:39:17.242Z,36.95
2023-04-16T01:41:44.038Z,39.13
2023-04-16T01:44:10.923Z,40.10
2023-04-16T01:46:37.863Z,38.54
2023-04-16T01:49:05.036Z,37.68
2023-04-16T01:51:32.330Z,38.14
2023-04-16T01:53:58.994Z,37.45
2023-04-16T01:56:26.257Z,37.73
2023-04-16T01:58:53.209Z,38.45
2023-04-16T02:01:20.045Z,37.96
2023-04-16T02:03:47.762Z,37.44
2023-04-16T02:06:15.585Z,38.00
2023-04-16T02:08:42.356Z,37.88
2023-04-16T02:11:09.153Z,36.46
2023-04-16T02:13:36.486Z,35.92
2023-04-16T02:16:03.429Z,35.54
2023-04-16T02:19:05.411Z,35.70
2023-04-16T02:21:35.281Z,34.96
2023-04-16T02:24:02.188Z,35.80
2023-04-16T02:26:30.652Z,35.15
2023-04-16T02:29:03.511Z,35.83
2023-04-16T02:31:38.387Z,35.95
2023-04-16T02:34:06.067Z,35.16
2023-04-16T02:36:32.710Z,35.44
2023-04-16T02:39:00.484Z,34.77
2023-04-16T02:41:27.116Z,35.44
2023-04-16T02:43:53.832Z,35.74
2023-04-16T02:46:21.627Z,35.32
2023-04-16T02:48:49.896Z,35.74
2023-04-16T02:51:16.572Z,35.11
2023-04-16T02:53:46.264Z,36.00
2023-04-16T02:56:13.624Z,35.40
2023-04-16T02:58:40.566Z,36.34
2023-04-16T03:01:07.604Z,36.45
2023-04-16T03:03:34.457Z,35.80
2023-04-16T03:06:01.210Z,36.67
2023-04-16T03:08:27.889Z,37.07
2023-04-16T03:10:54.630Z,36.66
2023-04-16T03:13:22.570Z,36.80
2023-04-16T03:15:49.786Z,37.28
2023-04-16T03:18:16.703Z,37.40
2023-04-16T03:20:43.416Z,37.37
2023-04-16T03:23:11.489Z,37.40
2023-04-16T03:25:40.613Z,37.42
2023-04-16T03:28:08.790Z,37.05
2023-04-16T03:30:35.695Z,37.29
2023-04-16T03:33:03.570Z,37.38
2023-04-16T03:35:30.479Z,38.29
2023-04-16T03:37:57.089Z,37.30
2023-04-16T03:40:24.037Z,37.67
2023-04-16T03:42:52.332Z,37.04
2023-04-16T03:45:19.996Z,37.55
2023-04-16T03:47:52.656Z,37.41
2023-04-16T03:50:22.354Z,37.34
2023-04-16T03:52:49.528Z,37.36
2023-04-16T03:55:17.510Z,37.45
2023-04-16T03:57:44.958Z,36.80
2023-04-16T04:00:14.942Z,37.61
2023-04-16T04:02:46.777Z,36.88
2023-04-16T04:05:18.564Z,36.53
2023-04-16T04:07:46.683Z,37.16
2023-04-16T04:10:14.449Z,37.33
2023-04-16T04:12:42.103Z,37.56
2023-04-16T04:15:09.119Z,37.91
2023-04-16T04:17:35.797Z,37.73
2023-04-16T04:20:02.741Z,38.59
2023-04-16T04:22:31.192Z,38.17
2023-04-16T04:24:58.004Z,38.54
2023-04-16T04:27:26.358Z,38.96
2023-04-16T04:29:53.315Z,39.49
2023-04-16T04:32:21.224Z,39.31
2023-04-16T04:34:49.113Z,39.09
2023-04-16T04:37:15.978Z,38.93
2023-04-16T04:39:43.848Z,39.96
2023-04-16T04:42:12.352Z,39.33
2023-04-16T04:44:39.232Z,39.24
2023-04-16T04:47:06.477Z,39.71
2023-04-16T04:49:33.044Z,39.56
2023-04-16T04:51:59.784Z,39.60
2023-04-16T04:54:26.443Z,39.48
2023-04-16T04:56:53.711Z,40.04
2023-04-16T04:59:20.993Z,40.05
2023-04-16T05:01:47.806Z,39.91
2023-04-16T05:04:14.522Z,39.56
2023-04-16T05:06:41.523Z,39.37
2023-04-16T05:09:12.005Z,39.32
2023-04-16T05:11:39.279Z,39.14
2023-04-16T05:14:06.050Z,39.40
2023-04-16T05:16:32.721Z,38.98
2023-04-16T05:18:59.560Z,39.64
2023-04-16T05:21:26.568Z,39.73
2023-04-16T05:23:53.340Z,39.80
2023-04-16T05:26:20.163Z,38.92
2023-04-16T05:28:46.914Z,39.64
2023-04-16T05:31:13.537Z,38.79
2023-04-16T05:33:40.397Z,38.65
2023-04-16T05:36:07.141Z,38.97
2023-04-16T05:38:33.881Z,39.03
2023-04-16T05:41:00.605Z,38.29
2023-04-16T05:43:27.271Z,38.91
2023-04-16T05:45:53.906Z,38.91
2023-04-16T05:48:20.545Z,37.84
2023-04-16T05:50:47.232Z,39.10
2023-04-16T05:53:14.318Z,37.92
2023-04-16T05:55:41.132Z,37.89
2023-04-16T05:58:07.834Z,38.19
2023-04-16T06:00:34.757Z,38.05
2023-04-16T06:03:02.381Z,38.83
2023-04-16T06:05:30.190Z,38.21
2023-04-16T06:07:56.964Z,37.11
2023-04-16T06:10:23.648Z,36.40
2023-04-16T06:12:50.496Z,39.05
2023-04-16T06:15:17.149Z,39.56
2023-04-16T06:17:43.852Z,37.56
2023-04-16T06:20:11.228Z,36.21
2023-04-16T06:22:37.856Z,38.09
2023-04-16T06:25:04.887Z,38.21
2023-04-16T06:27:31.540Z,37.86
2023-04-16T06:29:58.607Z,38.12
2023-04-16T06:32:25.282Z,38.72
2023-04-16T06:34:52.004Z,38.09
2023-04-16T06:37:18.579Z,37.25
2023-04-16T06:39:45.364Z,37.43
2023-04-16T06:42:12.016Z,38.70
2023-04-16T06:44:38.842Z,37.68
2023-04-16T06:47:05.536Z,37.91
2023-04-16T06:49:32.321Z,36.94
2023-04-16T06:51:58.945Z,37.00
2023-04-16T06:54:25.615Z,36.63
2023-04-16T06:56:53.186Z,36.81
2023-04-16T06:59:19.927Z,39.26
2023-04-16T07:01:46.502Z,38.47
2023-04-16T07:04:13.178Z,37.40
2023-04-16T07:06:40.822Z,37.44
2023-04-16T07:09:07.539Z,39.00
2023-04-16T07:11:34.403Z,37.74
2023-04-16T07:14:02.092Z,38.16
2023-04-16T07:16:28.738Z,37.82
2023-04-16T07:18:56.462Z,37.37
2023-04-16T07:21:23.088Z,38.62
2023-04-16T07:23:49.828Z,37.93
2023-04-16T07:26:16.420Z,37.90
2023-04-16T07:28:42.945Z,37.02
2023-04-16T07:31:09.610Z,37.41
2023-04-16T07:33:37.285Z,37.08
2023-04-16T07:36:06.512Z,37.47
2023-04-16T07:38:34.664Z,37.07
2023-04-16T07:41:01.784Z,37.00
2023-04-16T07:43:28.452Z,39.13
2023-04-16T07:45:55.220Z,38.50
2023-04-16T07:48:22.025Z,37.39
2023-04-16T07:50:50.113Z,36.86
2023-04-16T07:53:16.729Z,37.83
2023-04-16T07:55:44.952Z,38.23
2023-04-16T07:58:11.540Z,38.26
2023-04-16T08:00:38.256Z,37.23
2023-04-16T08:03:05.002Z,36.96
2023-04-16T08:05:31.836Z,36.95
2023-04-16T08:07:58.476Z,36.80
2023-04-16T08:10:25.214Z,36.61
2023-04-16T08:12:51.795Z,36.02
2023-04-16T08:15:18.515Z,35.97
2023-04-16T08:17:45.628Z,35.35
2023-04-16T08:20:15.189Z,35.66
2023-04-16T08:22:43.712Z,35.67
2023-04-16T08:25:10.593Z,36.27
2023-04-16T08:27:37.616Z,35.13
2023-04-16T08:30:04.555Z,36.00
2023-04-16T08:32:31.365Z,36.25
2023-04-16T08:34:58.016Z,35.21
2023-04-16T08:37:25.185Z,35.60
2023-04-16T08:39:51.797Z,34.29
2023-04-16T08:42:44.829Z,35.01
2023-04-16T08:45:11.674Z,33.48
2023-04-16T08:47:38.748Z,33.58
2023-04-16T08:50:06.141Z,33.97
2023-04-16T08:52:33.089Z,34.05
2023-04-16T08:54:59.807Z,34.11
2023-04-16T08:57:30.937Z,34.36
2023-04-16T08:59:58.243Z,34.36
2023-04-16T09:02:44.831Z,33.92
2023-04-16T09:05:14.415Z,33.58
2023-04-16T09:07:41.667Z,34.73
2023-04-16T09:10:08.649Z,33.61
2023-04-16T09:12:35.872Z,33.56
2023-04-16T09:15:03.529Z,34.09
2023-04-16T09:17:30.368Z,32.23
2023-04-16T09:19:59.324Z,32.37
2023-04-16T09:22:26.217Z,33.19
2023-04-16T09:24:52.878Z,33.32
2023-04-16T09:27:19.923Z,33.66
2023-04-16T09:29:46.860Z,32.41
2023-04-16T09:32:14.442Z,32.48
2023-04-16T09:34:53.583Z,32.36
2023-04-16T09:37:20.540Z,31.85
2023-04-16T09:39:54.758Z,32.16
2023-04-16T09:42:25.709Z,32.53
2023-04-16T09:44:52.473Z,31.19
2023-04-16T09:47:19.229Z,30.80
2023-04-16T09:49:47.134Z,30.90
2023-04-16T09:52:18.410Z,30.91
2023-04-16T09:54:48.027Z,30.27
2023-04-16T09:57:15.144Z,31.97
2023-04-16T09:59:42.004Z,32.08
2023-04-16T10:02:14.354Z,30.97
2023-04-16T10:04:45.676Z,31.95
2023-04-16T10:07:13.735Z,32.22
2023-04-16T10:09:40.846Z,33.48
2023-04-16T10:12:07.688Z,32.11
2023-04-16T10:14:34.827Z,31.33
2023-04-16T10:17:03.225Z,31.45
2023-04-16T10:19:32.757Z,32.04
2023-04-16T10:21:59.781Z,30.38
2023-04-16T10:24:26.545Z,30.02
2023-04-16T10:26:53.340Z,30.50
2023-04-16T10:29:20.787Z,32.30
2023-04-16T10:31:48.217Z,31.16
2023-04-16T10:34:15.060Z,30.27
2023-04-16T10:36:41.780Z,30.37
2023-04-16T10:39:14.799Z,30.04
2023-04-16T10:41:45.010Z,30.94
2023-04-16T10:44:11.769Z,29.43
2023-04-16T10:46:39.723Z,27.67
2023-04-16T10:49:17.752Z,28.19
2023-04-16T10:51:53.089Z,28.00
2023-04-16T10:54:21.261Z,28.36
2023-04-16T10:56:48.026Z,26.58
2023-04-16T10:59:18.165Z,27.42
2023-04-16T11:01:46.368Z,28.00
2023-04-16T11:04:33.495Z,29.37
2023-04-16T11:07:04.728Z,29.99
2023-04-16T11:09:47.904Z,28.39
2023-04-16T11:12:16.365Z,28.16
2023-04-16T11:14:43.058Z,29.37
2023-04-16T11:17:10.257Z,29.53
2023-04-16T11:19:38.207Z,28.75
2023-04-16T11:22:05.339Z,29.01
2023-04-16T11:24:32.523Z,28.92
2023-04-16T11:26:59.438Z,28.23
2023-04-16T11:29:26.073Z,27.74
2023-04-16T11:31:53.681Z,28.16
2023-04-16T11:34:20.864Z,28.89
2023-04-16T11:36:48.615Z,30.46
2023-04-16T11:39:15.360Z,30.11
2023-04-16T11:41:50.556Z,29.34
2023-04-16T11:44:21.193Z,30.26
2023-04-16T11:46:48.250Z,29.69
2023-04-16T11:49:15.662Z,28.51
2023-04-16T11:51:43.238Z,28.99
2023-04-16T11:54:11.986Z,28.35
2023-04-16T11:56:39.152Z,28.69
2023-04-16T11:59:26.165Z,28.29
2023-04-16T12:01:55.817Z,28.91
2023-04-16T12:04:25.155Z,28.98
2023-04-16T12:07:11.091Z,28.12
2023-04-16T12:09:40.791Z,27.72
2023-04-16T12:12:27.491Z,28.32
2023-04-16T12:14:56.883Z,27.85
2023-04-16T12:17:23.742Z,28.05
2023-04-16T12:19:56.077Z,28.12
2023-04-16T12:22:28.684Z,27.70
2023-04-16T12:24:57.004Z,28.12
2023-04-16T12:27:28.548Z,28.02
2023-04-16T12:30:07.402Z,29.03
2023-04-16T12:32:34.298Z,27.72
2023-04-16T12:35:01.270Z,29.26
2023-04-16T12:37:28.008Z,28.75
2023-04-16T12:39:54.803Z,29.55
2023-04-16T12:42:21.711Z,30.15
2023-04-16T12:44:48.313Z,32.33
2023-04-16T12:47:16.327Z,34.57
2023-04-16T12:49:44.504Z,33.17
2023-04-16T12:52:11.140Z,32.69
2023-04-16T12:54:38.312Z,32.38
2023-04-16T12:57:05.061Z,32.22
2023-04-16T12:59:31.809Z,32.24
2023-04-16T13:02:00.895Z,31.09
2023-04-16T13:04:28.006Z,31.98
2023-04-16T13:06:54.831Z,30.13
2023-04-16T13:09:21.471Z,30.66
2023-04-16T13:11:48.223Z,31.22
2023-04-16T13:14:14.838Z,31.29
2023-04-16T13:16:41.523Z,30.74
2023-04-16T13:19:08.682Z,31.52
2023-04-16T13:21:35.985Z,31.74
2023-04-16T13:24:03.157Z,32.48
2023-04-16T13:26:30.835Z,31.89
2023-04-16T13:28:57.458Z,32.01
2023-04-16T13:31:24.443Z,33.71
2023-04-16T13:33:51.120Z,31.41
2023-04-16T13:36:17.837Z,31.51
2023-04-16T13:38:44.564Z,31.73
2023-04-16T13:41:11.285Z,32.70
2023-04-16T13:43:37.920Z,32.31
2023-04-16T13:46:04.774Z,31.74
2023-04-16T13:48:31.557Z,32.46
2023-04-16T13:51:00.027Z,32.18
2023-04-16T13:53:26.730Z,32.66
2023-04-16T13:55:53.441Z,32.72
2023-04-16T13:58:20.478Z,32.75
2023-04-16T14:00:47.484Z,31.34
2023-04-16T14:03:15.629Z,31.01
2023-04-16T14:05:43.168Z,30.82
2023-04-16T14:08:10.205Z,31.14
2023-04-16T14:10:36.840Z,32.79
2023-04-16T14:13:03.683Z,32.32
2023-04-16T14:15:30.484Z,32.23
2023-04-16T14:17:57.348Z,32.26
2023-04-16T14:20:24.233Z,32.38
2023-04-16T14:22:51.482Z,33.58
2023-04-16T14:25:18.524Z,34.51
2023-04-16T14:27:45.282Z,35.36
2023-04-16T14:30:12.108Z,37.00
2023-04-16T14:32:38.777Z,37.57
2023-04-16T14:35:05.823Z,38.39
2023-04-16T14:37:32.518Z,39.02
2023-04-16T14:39:59.925Z,40.85
2023-04-16T14:42:27.200Z,40.86
2023-04-16T14:44:53.809Z,41.10
2023-04-16T14:47:20.373Z,41.54
2023-04-16T14:49:47.110Z,40.75
2023-04-16T14:52:13.699Z,42.20
2023-04-16T14:54:40.420Z,43.26
2023-04-16T14:57:07.138Z,43.32
2023-04-16T14:59:34.848Z,43.35
2023-04-16T15:02:01.533Z,44.91
2023-04-16T15:04:29.828Z,44.53
2023-04-16T15:06:59.074Z,44.75
2023-04-16T15:09:27.454Z,44.75
2023-04-16T15:11:54.293Z,43.90
2023-04-16T15:14:21.489Z,43.64
2023-04-16T15:16:48.753Z,43.00
2023-04-16T15:19:15.557Z,43.00
2023-04-16T15:21:42.264Z,43.34
2023-04-16T15:24:09.107Z,43.52
2023-04-16T15:26:36.180Z,44.42
2023-04-16T15:29:04.315Z,42.28
2023-04-16T15:31:31.144Z,42.78
2023-04-16T15:33:59.638Z,43.10
2023-04-16T15:36:26.865Z,44.86
2023-04-16T15:38:53.716Z,44.85
2023-04-16T15:41:20.528Z,44.85
2023-04-16T15:43:47.193Z,46.15
2023-04-16T15:46:15.018Z,45.07
2023-04-16T15:48:41.974Z,44.92
2023-04-16T15:51:08.714Z,46.71
2023-04-16T15:53:35.463Z,45.97
2023-04-16T15:56:02.138Z,44.56
2023-04-16T15:58:28.866Z,45.16
2023-04-16T16:00:55.587Z,45.10
2023-04-16T16:03:22.352Z,45.06
2023-04-16T16:05:49.228Z,45.21
2023-04-16T16:08:16.030Z,45.05
2023-04-16T16:10:43.125Z,45.99
2023-04-16T16:13:13.171Z,46.21
2023-04-16T16:15:41.389Z,46.07
2023-04-16T16:18:08.072Z,45.14
2023-04-16T16:20:35.181Z,46.00
2023-04-16T16:23:02.041Z,45.53
2023-04-16T16:25:30.245Z,43.65
2023-04-16T16:27:56.821Z,43.58
2023-04-16T16:30:23.540Z,45.35
2023-04-16T16:32:50.896Z,44.02
2023-04-16T16:35:17.543Z,44.03
2023-04-16T16:37:44.334Z,44.17
2023-04-16T16:40:11.361Z,43.57
2023-04-16T16:42:37.963Z,43.17
2023-04-16T16:45:06.171Z,42.55
2023-04-16T16:47:33.055Z,43.60
2023-04-16T16:50:02.167Z,43.64
2023-04-16T16:52:29.644Z,44.61
2023-04-16T16:55:22.303Z,44.12
2023-04-16T16:57:49.347Z,44.30
2023-04-16T17:00:16.956Z,44.21
2023-04-16T17:02:44.016Z,44.15
2023-04-16T17:05:11.057Z,44.78
2023-04-16T17:07:38.191Z,44.58
2023-04-16T17:10:08.100Z,46.48
2023-04-16T17:12:35.682Z,47.20
2023-04-16T17:15:03.242Z,45.51
2023-04-16T17:17:30.951Z,46.35
2023-04-16T17:19:57.759Z,46.36
2023-04-16T17:22:24.442Z,47.37
2023-04-16T17:24:53.158Z,47.83
2023-04-16T17:27:19.844Z,46.87
2023-04-16T17:29:46.558Z,47.34
2023-04-16T17:32:13.216Z,47.78
2023-04-16T17:34:39.758Z,47.37
2023-04-16T17:37:06.500Z,47.25
2023-04-16T17:39:33.194Z,45.68
2023-04-16T17:42:01.300Z,46.21
2023-04-16T17:44:28.140Z,45.35
2023-04-16T17:46:55.004Z,45.61
2023-04-16T17:49:21.999Z,45.62
2023-04-16T17:51:49.216Z,44.67
2023-04-16T17:54:15.902Z,45.50
2023-04-16T17:56:42.512Z,45.30
2023-04-16T17:59:09.173Z,46.33
2023-04-16T18:01:36.100Z,45.80
2023-04-16T18:04:03.024Z,46.84
2023-04-16T18:06:29.973Z,46.10
2023-04-16T18:08:56.810Z,45.92
2023-04-16T18:11:23.612Z,46.20
2023-04-16T18:13:52.496Z,46.03
2023-04-16T18:16:19.284Z,45.82
2023-04-16T18:18:46.329Z,46.38
2023-04-16T18:21:13.082Z,46.84
2023-04-16T18:23:39.692Z,46.88
2023-04-16T18:26:08.447Z,46.49
2023-04-16T18:31:05.587Z,48.87
2023-04-16T18:36:06.269Z,48.49
2023-04-16T18:38:32.992Z,48.15
2023-04-16T18:40:59.657Z,48.82
2023-04-16T18:43:26.336Z,48.38
2023-04-16T18:45:52.961Z,48.16
2023-04-16T18:48:19.701Z,46.99
2023-04-16T18:50:46.475Z,46.78
2023-04-16T18:53:13.064Z,46.87
2023-04-16T18:55:39.657Z,47.19
2023-04-16T18:58:06.297Z,46.95
2023-04-16T19:00:32.948Z,47.60
2023-04-16T19:02:59.814Z,47.69
2023-04-16T19:05:26.399Z,48.41
2023-04-16T19:07:53.210Z,47.95
2023-04-16T19:10:19.850Z,48.41
2023-04-16T19:12:47.493Z,48.47
2023-04-16T19:15:14.895Z,48.34
2023-04-16T19:17:41.844Z,49.85
2023-04-16T19:20:11.323Z,48.31
2023-04-16T19:22:38.625Z,48.09
2023-04-16T19:25:05.547Z,49.11
2023-04-16T19:27:32.242Z,49.36
2023-04-16T19:29:58.831Z,49.77
2023-04-16T19:32:25.577Z,49.71
2023-04-16T19:34:52.475Z,49.04
2023-04-16T19:37:19.369Z,50.57
2023-04-16T19:39:46.110Z,48.77
2023-04-16T19:42:12.758Z,48.35
2023-04-16T19:44:39.412Z,48.71
2023-04-16T19:47:06.660Z,49.23
2023-04-16T19:49:34.447Z,48.48
2023-04-16T19:52:01.453Z,48.84
2023-04-16T19:54:28.907Z,48.34
2023-04-16T19:56:55.603Z,48.09
2023-04-16T19:59:22.440Z,47.55
2023-04-16T20:01:49.208Z,46.86
2023-04-16T20:04:15.980Z,47.13
2023-04-16T20:06:42.725Z,47.38
2023-04-16T20:09:09.634Z,46.99
2023-04-16T20:11:36.764Z,46.66
2023-04-16T20:14:04.506Z,46.14
2023-04-16T20:16:31.658Z,46.49
2023-04-16T20:19:03.605Z,46.08
2023-04-16T20:21:32.316Z,46.76
2023-04-16T20:23:59.542Z,47.30
2023-04-16T20:26:28.431Z,46.59
2023-04-16T20:28:55.108Z,46.62
2023-04-16T20:31:21.916Z,46.46
2023-04-16T20:33:48.641Z,46.78
2023-04-16T20:36:15.525Z,46.80
2023-04-16T20:38:43.659Z,47.13
2023-04-16T20:41:11.009Z,46.92
2023-04-16T20:43:42.030Z,46.89
2023-04-16T20:46:10.968Z,47.19
2023-04-16T20:48:38.683Z,46.70
2023-04-16T20:51:07.895Z,47.35
2023-04-16T20:53:35.171Z,46.76
2023-04-16T20:56:01.940Z,47.29
2023-04-16T20:58:28.807Z,47.91
2023-04-16T21:00:56.147Z,47.67
2023-04-16T21:03:23.441Z,47.83
2023-04-16T21:05:53.851Z,47.71
2023-04-16T21:08:21.277Z,47.43
2023-04-16T21:10:48.063Z,48.43
2023-04-16T21:13:15.091Z,47.96
2023-04-16T21:15:42.765Z,48.78
2023-04-16T21:18:09.893Z,48.43
2023-04-16T21:20:36.860Z,47.89
2023-04-16T21:23:04.494Z,48.54
2023-04-16T21:25:31.850Z,48.42
2023-04-16T21:27:58.637Z,48.48
2023-04-16T21:30:25.402Z,48.74
2023-04-16T21:32:52.379Z,48.30
2023-04-16T21:35:19.095Z,48.44
2023-04-16T21:37:45.901Z,48.27
2023-04-16T21:40:12.515Z,48.59
2023-04-16T21:42:40.089Z,48.87
2023-04-16T21:45:07.877Z,48.58
2023-04-16T21:47:34.699Z,48.51
2023-04-16T21:50:01.427Z,48.94
2023-04-16T21:52:28.053Z,48.92
2023-04-16T21:54:54.781Z,49.63
2023-04-16T21:57:21.420Z,49.27
2023-04-16T21:59:48.155Z,49.23
2023-04-16T22:02:14.853Z,48.69
2023-04-16T22:04:43.606Z,49.25
2023-04-16T22:07:10.243Z,49.61
2023-04-16T22:09:37.331Z,49.18
2023-04-16T22:12:06.925Z,49.27
2023-04-16T22:14:36.764Z,48.96
2023-04-16T22:17:04.386Z,49.76
2023-04-16T22:19:31.232Z,49.30
2023-04-16T22:21:57.946Z,49.00
2023-04-16T22:24:24.667Z,48.48
2023-04-16T22:26:51.323Z,48.62
2023-04-16T22:29:17.967Z,48.67
2023-04-16T22:31:44.740Z,47.95
2023-04-16T22:34:11.462Z,48.32
2023-04-16T22:36:38.103Z,47.97
2023-04-16T22:39:08.770Z,47.78
2023-04-16T22:41:36.586Z,48.18
2023-04-16T22:44:03.489Z,48.45
2023-04-16T22:46:31.079Z,48.70
2023-04-16T22:48:57.890Z,49.17
2023-04-16T22:51:24.539Z,49.99
2023-04-16T22:53:51.859Z,49.06
2023-04-16T22:56:19.092Z,50.08
2023-04-16T22:58:46.286Z,48.92
2023-04-16T23:01:13.034Z,48.40
2023-04-16T23:03:39.715Z,50.13
2023-04-16T23:06:06.794Z,49.98
2023-04-16T23:08:33.807Z,50.08
2023-04-16T23:11:00.479Z,48.97
2023-04-16T23:13:27.032Z,49.23
2023-04-16T23:15:53.786Z,49.31
2023-04-16T23:18:20.530Z,48.99
2023-04-16T23:20:50.381Z,48.84
2023-04-16T23:23:17.087Z,48.65
2023-04-16T23:25:43.840Z,49.29
2023-04-16T23:28:10.747Z,49.89
2023-04-16T23:30:38.590Z,49.18
2023-04-16T23:33:05.437Z,49.63
2023-04-16T23:35:32.106Z,48.97
2023-04-16T23:37:59.232Z,49.21
2023-04-16T23:40:26.224Z,49.47
2023-04-16T23:42:52.951Z,50.39
2023-04-16T23:45:19.641Z,50.27
2023-04-16T23:47:46.985Z,49.64
2023-04-16T23:50:13.824Z,49.80
2023-04-16T23:52:40.422Z,50.77
2023-04-16T23:55:07.296Z,49.92
2023-04-16T23:57:33.992Z,49.70
